sensor_id;sensor_type;location;lat;lon;timestamp;temperature;humidity
2477;DHT22;1249;51.270;6.756;2022-07-23T00:01:10;24.60;92.20
2477;DHT22;1249;51.270;6.756;2022-07-23T00:03:37;24.50;92.20
2477;DHT22;1249;51.270;6.756;2022-07-23T00:06:04;24.50;92.30
2477;DHT22;1249;51.270;6.756;2022-07-23T00:08:32;24.50;92.40
2477;DHT22;1249;51.270;6.756;2022-07-23T00:10:59;24.50;92.50
2477;DHT22;1249;51.270;6.756;2022-07-23T00:13:26;24.50;92.90
2477;DHT22;1249;51.270;6.756;2022-07-23T00:15:53;24.40;92.60
2477;DHT22;1249;51.270;6.756;2022-07-23T00:18:21;24.40;92.70
2477;DHT22;1249;51.270;6.756;2022-07-23T00:20:47;24.40;92.80
2477;DHT22;1249;51.270;6.756;2022-07-23T00:23:14;24.40;92.80
2477;DHT22;1249;51.270;6.756;2022-07-23T00:25:42;24.40;92.80
2477;DHT22;1249;51.270;6.756;2022-07-23T00:28:11;24.40;92.90
2477;DHT22;1249;51.270;6.756;2022-07-23T00:30:38;24.40;92.90
2477;DHT22;1249;51.270;6.756;2022-07-23T00:33:06;24.40;93.00
2477;DHT22;1249;51.270;6.756;2022-07-23T00:35:35;24.40;93.00
2477;DHT22;1249;51.270;6.756;2022-07-23T00:38:03;24.40;93.10
2477;DHT22;1249;51.270;6.756;2022-07-23T00:40:31;24.40;93.10
2477;DHT22;1249;51.270;6.756;2022-07-23T00:42:59;24.30;93.20
2477;DHT22;1249;51.270;6.756;2022-07-23T00:45:26;24.30;93.30
2477;DHT22;1249;51.270;6.756;2022-07-23T00:47:53;24.30;93.70
2477;DHT22;1249;51.270;6.756;2022-07-23T00:50:20;24.30;93.40
2477;DHT22;1249;51.270;6.756;2022-07-23T00:52:47;24.30;93.50
2477;DHT22;1249;51.270;6.756;2022-07-23T00:55:14;24.30;93.50
2477;DHT22;1249;51.270;6.756;2022-07-23T00:57:42;24.30;93.60
2477;DHT22;1249;51.270;6.756;2022-07-23T01:00:12;24.30;93.60
2477;DHT22;1249;51.270;6.756;2022-07-23T01:02:40;24.20;93.70
2477;DHT22;1249;51.270;6.756;2022-07-23T01:05:08;24.20;93.70
2477;DHT22;1249;51.270;6.756;2022-07-23T01:07:35;24.20;93.70
2477;DHT22;1249;51.270;6.756;2022-07-23T01:10:03;24.20;93.70
2477;DHT22;1249;51.270;6.756;2022-07-23T01:12:50;24.20;93.80
2477;DHT22;1249;51.270;6.756;2022-07-23T01:15:19;24.20;93.90
2477;DHT22;1249;51.270;6.756;2022-07-23T01:17:45;24.10;94.00
2477;DHT22;1249;51.270;6.756;2022-07-23T01:20:12;24.10;94.00
2477;DHT22;1249;51.270;6.756;2022-07-23T01:22:41;24.10;94.00
2477;DHT22;1249;51.270;6.756;2022-07-23T01:25:08;24.10;94.10
2477;DHT22;1249;51.270;6.756;2022-07-23T01:27:35;24.10;94.10
2477;DHT22;1249;51.270;6.756;2022-07-23T01:30:03;24.10;94.20
2477;DHT22;1249;51.270;6.756;2022-07-23T01:32:31;24.10;94.30
2477;DHT22;1249;51.270;6.756;2022-07-23T01:34:58;24.10;94.30
2477;DHT22;1249;51.270;6.756;2022-07-23T01:37:25;24.10;94.40
2477;DHT22;1249;51.270;6.756;2022-07-23T01:39:53;24.10;94.40
2477;DHT22;1249;51.270;6.756;2022-07-23T01:42:20;24.00;94.40
2477;DHT22;1249;51.270;6.756;2022-07-23T01:44:46;24.00;94.50
2477;DHT22;1249;51.270;6.756;2022-07-23T01:47:13;24.00;94.50
2477;DHT22;1249;51.270;6.756;2022-07-23T01:49:40;24.00;94.50
2477;DHT22;1249;51.270;6.756;2022-07-23T01:52:07;24.00;94.60
2477;DHT22;1249;51.270;6.756;2022-07-23T01:54:37;24.00;94.80
2477;DHT22;1249;51.270;6.756;2022-07-23T01:57:07;23.90;94.80
2477;DHT22;1249;51.270;6.756;2022-07-23T01:59:34;23.90;94.80
2477;DHT22;1249;51.270;6.756;2022-07-23T02:02:02;23.90;94.90
2477;DHT22;1249;51.270;6.756;2022-07-23T02:04:31;23.90;94.90
2477;DHT22;1249;51.270;6.756;2022-07-23T02:07:00;23.90;95.00
2477;DHT22;1249;51.270;6.756;2022-07-23T02:09:27;23.90;95.10
2477;DHT22;1249;51.270;6.756;2022-07-23T02:11:54;23.90;95.20
2477;DHT22;1249;51.270;6.756;2022-07-23T02:14:22;23.80;95.20
2477;DHT22;1249;51.270;6.756;2022-07-23T02:16:49;23.80;95.30
2477;DHT22;1249;51.270;6.756;2022-07-23T02:19:16;23.80;95.40
2477;DHT22;1249;51.270;6.756;2022-07-23T02:21:43;23.80;95.40
2477;DHT22;1249;51.270;6.756;2022-07-23T02:24:10;23.80;95.50
2477;DHT22;1249;51.270;6.756;2022-07-23T02:26:37;23.80;95.60
2477;DHT22;1249;51.270;6.756;2022-07-23T02:29:04;23.80;95.60
2477;DHT22;1249;51.270;6.756;2022-07-23T02:31:32;23.70;95.60
2477;DHT22;1249;51.270;6.756;2022-07-23T02:33:59;23.80;95.70
2477;DHT22;1249;51.270;6.756;2022-07-23T02:36:27;23.70;95.70
2477;DHT22;1249;51.270;6.756;2022-07-23T02:38:54;23.80;95.80
2477;DHT22;1249;51.270;6.756;2022-07-23T02:41:21;23.80;95.80
2477;DHT22;1249;51.270;6.756;2022-07-23T02:43:48;23.70;95.80
2477;DHT22;1249;51.270;6.756;2022-07-23T02:46:15;23.70;95.90
2477;DHT22;1249;51.270;6.756;2022-07-23T02:48:43;23.70;95.90
2477;DHT22;1249;51.270;6.756;2022-07-23T02:51:10;23.60;96.30
2477;DHT22;1249;51.270;6.756;2022-07-23T02:53:37;23.60;96.10
2477;DHT22;1249;51.270;6.756;2022-07-23T02:56:04;23.60;96.10
2477;DHT22;1249;51.270;6.756;2022-07-23T02:58:31;23.60;96.20
2477;DHT22;1249;51.270;6.756;2022-07-23T03:00:58;23.60;96.30
2477;DHT22;1249;51.270;6.756;2022-07-23T03:03:24;23.60;96.30
2477;DHT22;1249;51.270;6.756;2022-07-23T03:05:52;23.60;96.30
2477;DHT22;1249;51.270;6.756;2022-07-23T03:08:19;23.60;96.40
2477;DHT22;1249;51.270;6.756;2022-07-23T03:10:46;23.60;96.40
2477;DHT22;1249;51.270;6.756;2022-07-23T03:13:13;23.50;96.50
2477;DHT22;1249;51.270;6.756;2022-07-23T03:15:40;23.50;96.60
2477;DHT22;1249;51.270;6.756;2022-07-23T03:18:07;23.50;96.60
2477;DHT22;1249;51.270;6.756;2022-07-23T03:20:33;23.40;96.70
2477;DHT22;1249;51.270;6.756;2022-07-23T03:23:02;23.50;96.70
2477;DHT22;1249;51.270;6.756;2022-07-23T03:25:29;23.40;96.80
2477;DHT22;1249;51.270;6.756;2022-07-23T03:27:56;23.40;96.80
2477;DHT22;1249;51.270;6.756;2022-07-23T03:30:22;23.40;96.90
2477;DHT22;1249;51.270;6.756;2022-07-23T03:32:49;23.40;97.00
2477;DHT22;1249;51.270;6.756;2022-07-23T03:35:16;23.40;97.10
2477;DHT22;1249;51.270;6.756;2022-07-23T03:37:43;23.30;97.00
2477;DHT22;1249;51.270;6.756;2022-07-23T03:40:12;23.40;97.10
2477;DHT22;1249;51.270;6.756;2022-07-23T03:42:39;23.30;97.10
2477;DHT22;1249;51.270;6.756;2022-07-23T03:45:08;23.30;97.20
2477;DHT22;1249;51.270;6.756;2022-07-23T03:47:35;23.30;97.20
2477;DHT22;1249;51.270;6.756;2022-07-23T03:50:02;23.30;97.30
2477;DHT22;1249;51.270;6.756;2022-07-23T03:52:29;23.30;97.30
2477;DHT22;1249;51.270;6.756;2022-07-23T03:54:56;23.30;97.30
2477;DHT22;1249;51.270;6.756;2022-07-23T03:57:24;23.30;97.30
2477;DHT22;1249;51.270;6.756;2022-07-23T03:59:50;23.30;97.30
2477;DHT22;1249;51.270;6.756;2022-07-23T04:02:17;23.20;97.30
2477;DHT22;1249;51.270;6.756;2022-07-23T04:04:44;23.20;97.40
2477;DHT22;1249;51.270;6.756;2022-07-23T04:07:12;23.20;97.50
2477;DHT22;1249;51.270;6.756;2022-07-23T04:09:39;23.20;97.40
2477;DHT22;1249;51.270;6.756;2022-07-23T04:12:07;23.20;97.40
2477;DHT22;1249;51.270;6.756;2022-07-23T04:14:36;23.20;97.40
2477;DHT22;1249;51.270;6.756;2022-07-23T04:17:02;23.20;97.40
2477;DHT22;1249;51.270;6.756;2022-07-23T04:19:29;23.20;97.50
2477;DHT22;1249;51.270;6.756;2022-07-23T04:21:57;23.20;97.60
2477;DHT22;1249;51.270;6.756;2022-07-23T04:24:24;23.20;97.60
2477;DHT22;1249;51.270;6.756;2022-07-23T04:26:51;23.20;97.50
2477;DHT22;1249;51.270;6.756;2022-07-23T04:29:18;23.20;97.50
2477;DHT22;1249;51.270;6.756;2022-07-23T04:31:46;23.00;97.50
2477;DHT22;1249;51.270;6.756;2022-07-23T04:34:13;23.10;97.60
2477;DHT22;1249;51.270;6.756;2022-07-23T04:36:40;23.20;97.50
2477;DHT22;1249;51.270;6.756;2022-07-23T04:39:07;23.20;97.50
2477;DHT22;1249;51.270;6.756;2022-07-23T04:41:34;23.20;97.50
2477;DHT22;1249;51.270;6.756;2022-07-23T04:44:01;23.20;97.50
2477;DHT22;1249;51.270;6.756;2022-07-23T04:46:28;23.10;97.60
2477;DHT22;1249;51.270;6.756;2022-07-23T04:48:56;23.20;97.60
2477;DHT22;1249;51.270;6.756;2022-07-23T04:51:23;23.20;97.60
2477;DHT22;1249;51.270;6.756;2022-07-23T04:53:49;23.20;97.60
2477;DHT22;1249;51.270;6.756;2022-07-23T04:56:16;23.10;97.60
2477;DHT22;1249;51.270;6.756;2022-07-23T04:58:43;23.10;97.60
2477;DHT22;1249;51.270;6.756;2022-07-23T05:01:10;23.10;97.60
2477;DHT22;1249;51.270;6.756;2022-07-23T05:03:37;23.10;97.60
2477;DHT22;1249;51.270;6.756;2022-07-23T05:06:05;23.20;97.60
2477;DHT22;1249;51.270;6.756;2022-07-23T05:08:32;23.10;97.80
2477;DHT22;1249;51.270;6.756;2022-07-23T05:10:59;23.10;97.80
2477;DHT22;1249;51.270;6.756;2022-07-23T05:13:26;23.10;97.30
2477;DHT22;1249;51.270;6.756;2022-07-23T05:15:52;23.10;96.20
2477;DHT22;1249;51.270;6.756;2022-07-23T05:18:19;22.90;96.40
2477;DHT22;1249;51.270;6.756;2022-07-23T05:20:46;22.80;97.10
2477;DHT22;1249;51.270;6.756;2022-07-23T05:23:14;22.70;97.20
2477;DHT22;1249;51.270;6.756;2022-07-23T05:25:41;22.70;97.90
2477;DHT22;1249;51.270;6.756;2022-07-23T05:28:07;22.70;98.70
2477;DHT22;1249;51.270;6.756;2022-07-23T05:30:34;22.70;99.90
2477;DHT22;1249;51.270;6.756;2022-07-23T05:33:01;22.80;99.90
2477;DHT22;1249;51.270;6.756;2022-07-23T05:35:28;22.80;99.40
2477;DHT22;1249;51.270;6.756;2022-07-23T05:37:55;22.90;99.60
2477;DHT22;1249;51.270;6.756;2022-07-23T05:40:23;22.90;99.50
2477;DHT22;1249;51.270;6.756;2022-07-23T05:42:50;23.00;99.20
2477;DHT22;1249;51.270;6.756;2022-07-23T05:45:16;23.00;99.30
2477;DHT22;1249;51.270;6.756;2022-07-23T05:47:45;23.00;99.30
2477;DHT22;1249;51.270;6.756;2022-07-23T05:50:13;23.00;99.20
2477;DHT22;1249;51.270;6.756;2022-07-23T05:52:40;23.10;99.30
2477;DHT22;1249;51.270;6.756;2022-07-23T05:55:08;23.10;98.70
2477;DHT22;1249;51.270;6.756;2022-07-23T05:57:37;23.10;98.80
2477;DHT22;1249;51.270;6.756;2022-07-23T06:00:07;23.20;99.90
2477;DHT22;1249;51.270;6.756;2022-07-23T06:02:34;23.30;99.90
2477;DHT22;1249;51.270;6.756;2022-07-23T06:05:01;23.30;99.90
2477;DHT22;1249;51.270;6.756;2022-07-23T06:07:28;23.30;99.90
2477;DHT22;1249;51.270;6.756;2022-07-23T06:09:55;23.40;99.90
2477;DHT22;1249;51.270;6.756;2022-07-23T06:12:21;23.40;99.90
2477;DHT22;1249;51.270;6.756;2022-07-23T06:14:51;23.50;99.90
2477;DHT22;1249;51.270;6.756;2022-07-23T06:17:18;23.50;99.90
2477;DHT22;1249;51.270;6.756;2022-07-23T06:19:44;23.60;99.90
2477;DHT22;1249;51.270;6.756;2022-07-23T06:22:11;23.70;99.90
2477;DHT22;1249;51.270;6.756;2022-07-23T06:24:38;23.70;99.90
2477;DHT22;1249;51.270;6.756;2022-07-23T06:27:05;23.80;99.90
2477;DHT22;1249;51.270;6.756;2022-07-23T06:29:32;23.90;99.90
2477;DHT22;1249;51.270;6.756;2022-07-23T06:32:01;24.00;99.90
2477;DHT22;1249;51.270;6.756;2022-07-23T06:34:28;24.00;99.90
2477;DHT22;1249;51.270;6.756;2022-07-23T06:36:55;24.10;99.90
2477;DHT22;1249;51.270;6.756;2022-07-23T06:39:23;24.20;99.80
2477;DHT22;1249;51.270;6.756;2022-07-23T06:41:50;24.30;99.70
2477;DHT22;1249;51.270;6.756;2022-07-23T06:44:18;24.30;99.60
2477;DHT22;1249;51.270;6.756;2022-07-23T06:46:45;24.50;99.60
2477;DHT22;1249;51.270;6.756;2022-07-23T06:49:13;24.60;99.30
2477;DHT22;1249;51.270;6.756;2022-07-23T06:51:39;24.70;98.80
2477;DHT22;1249;51.270;6.756;2022-07-23T06:54:06;24.80;99.10
2477;DHT22;1249;51.270;6.756;2022-07-23T06:56:33;24.90;98.80
2477;DHT22;1249;51.270;6.756;2022-07-23T06:59:00;25.10;98.70
2477;DHT22;1249;51.270;6.756;2022-07-23T07:01:27;25.20;98.60
2477;DHT22;1249;51.270;6.756;2022-07-23T07:03:53;25.30;98.40
2477;DHT22;1249;51.270;6.756;2022-07-23T07:06:21;25.40;98.10
2477;DHT22;1249;51.270;6.756;2022-07-23T07:08:48;25.50;97.70
2477;DHT22;1249;51.270;6.756;2022-07-23T07:11:15;25.70;97.60
2477;DHT22;1249;51.270;6.756;2022-07-23T07:13:42;25.80;97.10
2477;DHT22;1249;51.270;6.756;2022-07-23T07:16:09;26.00;96.90
2477;DHT22;1249;51.270;6.756;2022-07-23T07:18:36;26.00;96.50
2477;DHT22;1249;51.270;6.756;2022-07-23T07:21:03;26.10;95.80
2477;DHT22;1249;51.270;6.756;2022-07-23T07:23:31;26.30;94.70
2477;DHT22;1249;51.270;6.756;2022-07-23T07:25:58;26.40;93.70
2477;DHT22;1249;51.270;6.756;2022-07-23T07:28:24;26.50;92.40
2477;DHT22;1249;51.270;6.756;2022-07-23T07:30:51;26.50;91.60
2477;DHT22;1249;51.270;6.756;2022-07-23T07:33:18;26.60;91.30
2477;DHT22;1249;51.270;6.756;2022-07-23T07:35:46;26.70;91.30
2477;DHT22;1249;51.270;6.756;2022-07-23T07:38:13;26.70;90.30
2477;DHT22;1249;51.270;6.756;2022-07-23T07:40:41;26.80;91.30
2477;DHT22;1249;51.270;6.756;2022-07-23T07:43:08;27.00;90.90
2477;DHT22;1249;51.270;6.756;2022-07-23T07:45:35;27.00;90.60
2477;DHT22;1249;51.270;6.756;2022-07-23T07:48:02;27.20;90.50
2477;DHT22;1249;51.270;6.756;2022-07-23T07:50:29;27.40;90.00
2477;DHT22;1249;51.270;6.756;2022-07-23T07:52:56;27.60;89.40
2477;DHT22;1249;51.270;6.756;2022-07-23T07:55:28;27.50;88.60
2477;DHT22;1249;51.270;6.756;2022-07-23T07:57:58;27.40;87.60
2477;DHT22;1249;51.270;6.756;2022-07-23T08:00:24;27.40;88.60
2477;DHT22;1249;51.270;6.756;2022-07-23T08:02:53;27.40;85.70
2477;DHT22;1249;51.270;6.756;2022-07-23T08:05:21;27.30;86.00
2477;DHT22;1249;51.270;6.756;2022-07-23T08:07:49;27.50;85.60
2477;DHT22;1249;51.270;6.756;2022-07-23T08:10:16;27.60;84.40
2477;DHT22;1249;51.270;6.756;2022-07-23T08:12:45;27.90;83.20
2477;DHT22;1249;51.270;6.756;2022-07-23T08:15:15;28.10;81.80
2477;DHT22;1249;51.270;6.756;2022-07-23T08:17:43;28.30;80.70
2477;DHT22;1249;51.270;6.756;2022-07-23T08:20:13;28.50;79.50
2477;DHT22;1249;51.270;6.756;2022-07-23T08:22:45;28.80;79.00
2477;DHT22;1249;51.270;6.756;2022-07-23T08:25:12;28.90;77.70
2477;DHT22;1249;51.270;6.756;2022-07-23T08:27:39;29.20;76.90
2477;DHT22;1249;51.270;6.756;2022-07-23T08:30:07;29.30;76.60
2477;DHT22;1249;51.270;6.756;2022-07-23T08:32:52;29.50;75.90
2477;DHT22;1249;51.270;6.756;2022-07-23T08:35:25;29.70;75.10
2477;DHT22;1249;51.270;6.756;2022-07-23T08:37:52;29.80;74.40
2477;DHT22;1249;51.270;6.756;2022-07-23T08:40:19;29.90;72.60
2477;DHT22;1249;51.270;6.756;2022-07-23T08:42:49;30.00;71.80
2477;DHT22;1249;51.270;6.756;2022-07-23T08:45:18;30.20;70.70
2477;DHT22;1249;51.270;6.756;2022-07-23T08:47:50;30.30;69.70
2477;DHT22;1249;51.270;6.756;2022-07-23T08:50:17;30.50;68.90
2477;DHT22;1249;51.270;6.756;2022-07-23T08:52:44;30.70;68.30
2477;DHT22;1249;51.270;6.756;2022-07-23T08:55:11;30.80;67.20
2477;DHT22;1249;51.270;6.756;2022-07-23T08:57:38;30.90;66.60
2477;DHT22;1249;51.270;6.756;2022-07-23T09:00:06;31.10;66.10
2477;DHT22;1249;51.270;6.756;2022-07-23T09:02:39;31.20;65.50
2477;DHT22;1249;51.270;6.756;2022-07-23T09:05:09;31.40;64.80
2477;DHT22;1249;51.270;6.756;2022-07-23T09:07:37;31.50;63.10
2477;DHT22;1249;51.270;6.756;2022-07-23T09:10:09;31.70;62.20
2477;DHT22;1249;51.270;6.756;2022-07-23T09:12:36;31.80;61.10
2477;DHT22;1249;51.270;6.756;2022-07-23T09:15:04;31.90;61.40
2477;DHT22;1249;51.270;6.756;2022-07-23T09:17:37;32.00;61.80
2477;DHT22;1249;51.270;6.756;2022-07-23T09:20:10;32.20;62.20
2477;DHT22;1249;51.270;6.756;2022-07-23T09:22:38;32.40;62.40
2477;DHT22;1249;51.270;6.756;2022-07-23T09:25:10;32.50;62.00
2477;DHT22;1249;51.270;6.756;2022-07-23T09:27:52;32.70;61.20
2477;DHT22;1249;51.270;6.756;2022-07-23T09:30:21;32.90;60.20
2477;DHT22;1249;51.270;6.756;2022-07-23T09:33:05;33.00;59.80
2477;DHT22;1249;51.270;6.756;2022-07-23T09:35:48;33.20;59.70
2477;DHT22;1249;51.270;6.756;2022-07-23T09:38:16;33.40;60.20
2477;DHT22;1249;51.270;6.756;2022-07-23T09:40:44;33.60;60.30
2477;DHT22;1249;51.270;6.756;2022-07-23T09:43:11;33.70;60.20
2477;DHT22;1249;51.270;6.756;2022-07-23T09:45:38;33.80;59.20
2477;DHT22;1249;51.270;6.756;2022-07-23T09:48:13;33.90;58.50
2477;DHT22;1249;51.270;6.756;2022-07-23T09:50:41;34.10;58.40
2477;DHT22;1249;51.270;6.756;2022-07-23T09:53:09;34.20;57.80
2477;DHT22;1249;51.270;6.756;2022-07-23T09:55:50;34.30;57.00
2477;DHT22;1249;51.270;6.756;2022-07-23T09:58:18;34.50;56.30
2477;DHT22;1249;51.270;6.756;2022-07-23T10:00:49;34.60;55.70
2477;DHT22;1249;51.270;6.756;2022-07-23T10:03:17;34.70;55.10
2477;DHT22;1249;51.270;6.756;2022-07-23T10:05:46;34.80;54.20
2477;DHT22;1249;51.270;6.756;2022-07-23T10:08:17;34.90;53.60
2477;DHT22;1249;51.270;6.756;2022-07-23T10:10:45;35.00;53.30
2477;DHT22;1249;51.270;6.756;2022-07-23T10:13:14;35.10;52.80
2477;DHT22;1249;51.270;6.756;2022-07-23T10:15:55;35.30;52.80
2477;DHT22;1249;51.270;6.756;2022-07-23T10:18:22;35.40;52.10
2477;DHT22;1249;51.270;6.756;2022-07-23T10:20:49;35.60;51.80
2477;DHT22;1249;51.270;6.756;2022-07-23T10:23:23;35.60;51.10
2477;DHT22;1249;51.270;6.756;2022-07-23T10:25:57;35.70;50.10
2477;DHT22;1249;51.270;6.756;2022-07-23T10:28:50;35.70;49.60
2477;DHT22;1249;51.270;6.756;2022-07-23T10:31:28;35.90;49.20
2477;DHT22;1249;51.270;6.756;2022-07-23T10:34:05;36.00;49.40
2477;DHT22;1249;51.270;6.756;2022-07-23T10:36:42;36.10;49.50
2477;DHT22;1249;51.270;6.756;2022-07-23T10:39:17;36.10;49.10
2477;DHT22;1249;51.270;6.756;2022-07-23T10:41:46;36.30;48.90
2477;DHT22;1249;51.270;6.756;2022-07-23T10:44:14;36.40;49.80
2477;DHT22;1249;51.270;6.756;2022-07-23T10:47:02;36.50;50.20
2477;DHT22;1249;51.270;6.756;2022-07-23T10:50:19;36.60;49.90
2477;DHT22;1249;51.270;6.756;2022-07-23T10:53:10;36.70;49.60
2477;DHT22;1249;51.270;6.756;2022-07-23T10:55:42;36.80;49.20
2477;DHT22;1249;51.270;6.756;2022-07-23T10:58:10;36.80;48.60
2477;DHT22;1249;51.270;6.756;2022-07-23T11:00:37;36.90;48.50
2477;DHT22;1249;51.270;6.756;2022-07-23T11:03:05;36.90;48.10
2477;DHT22;1249;51.270;6.756;2022-07-23T11:05:53;36.90;47.90
2477;DHT22;1249;51.270;6.756;2022-07-23T11:08:20;37.00;47.80
2477;DHT22;1249;51.270;6.756;2022-07-23T11:10:52;37.10;47.80
2477;DHT22;1249;51.270;6.756;2022-07-23T11:13:42;37.20;48.00
2477;DHT22;1249;51.270;6.756;2022-07-23T11:16:21;37.20;48.30
2477;DHT22;1249;51.270;6.756;2022-07-23T11:19:07;37.10;48.40
2477;DHT22;1249;51.270;6.756;2022-07-23T11:21:46;37.10;47.90
2477;DHT22;1249;51.270;6.756;2022-07-23T11:24:18;37.20;47.20
2477;DHT22;1249;51.270;6.756;2022-07-23T11:26:54;37.30;46.80
2477;DHT22;1249;51.270;6.756;2022-07-23T11:29:46;37.40;46.10
2477;DHT22;1249;51.270;6.756;2022-07-23T11:32:39;37.40;45.90
2477;DHT22;1249;51.270;6.756;2022-07-23T11:35:25;37.50;46.40
2477;DHT22;1249;51.270;6.756;2022-07-23T11:38:03;37.70;46.70
2477;DHT22;1249;51.270;6.756;2022-07-23T11:40:30;37.70;46.40
2477;DHT22;1249;51.270;6.756;2022-07-23T11:42:58;37.90;45.90
2477;DHT22;1249;51.270;6.756;2022-07-23T11:45:31;38.00;45.70
2477;DHT22;1249;51.270;6.756;2022-07-23T11:47:59;38.10;45.90
2477;DHT22;1249;51.270;6.756;2022-07-23T11:50:26;38.10;45.70
2477;DHT22;1249;51.270;6.756;2022-07-23T11:52:54;38.20;45.70
2477;DHT22;1249;51.270;6.756;2022-07-23T11:55:21;38.30;45.50
2477;DHT22;1249;51.270;6.756;2022-07-23T11:57:50;38.30;45.00
2477;DHT22;1249;51.270;6.756;2022-07-23T12:00:20;38.30;44.50
2477;DHT22;1249;51.270;6.756;2022-07-23T12:02:49;38.40;43.90
2477;DHT22;1249;51.270;6.756;2022-07-23T12:05:17;38.50;43.60
2477;DHT22;1249;51.270;6.756;2022-07-23T12:07:45;38.50;42.80
2477;DHT22;1249;51.270;6.756;2022-07-23T12:10:18;38.50;42.50
2477;DHT22;1249;51.270;6.756;2022-07-23T12:12:47;38.60;43.10
2477;DHT22;1249;51.270;6.756;2022-07-23T12:15:17;38.60;43.20
2477;DHT22;1249;51.270;6.756;2022-07-23T12:17:46;38.60;43.00
2477;DHT22;1249;51.270;6.756;2022-07-23T12:20:15;38.50;42.90
2477;DHT22;1249;51.270;6.756;2022-07-23T12:22:45;38.30;43.30
2477;DHT22;1249;51.270;6.756;2022-07-23T12:25:13;38.10;43.60
2477;DHT22;1249;51.270;6.756;2022-07-23T12:27:43;38.10;43.80
2477;DHT22;1249;51.270;6.756;2022-07-23T12:30:21;38.10;43.80
2477;DHT22;1249;51.270;6.756;2022-07-23T12:32:51;38.30;43.80
2477;DHT22;1249;51.270;6.756;2022-07-23T12:35:19;38.30;43.80
2477;DHT22;1249;51.270;6.756;2022-07-23T12:37:48;38.50;43.70
2477;DHT22;1249;51.270;6.756;2022-07-23T12:40:25;38.60;43.40
2477;DHT22;1249;51.270;6.756;2022-07-23T12:42:55;38.70;43.10
2477;DHT22;1249;51.270;6.756;2022-07-23T12:45:22;38.70;43.40
2477;DHT22;1249;51.270;6.756;2022-07-23T12:47:54;38.80;43.70
2477;DHT22;1249;51.270;6.756;2022-07-23T12:50:35;38.80;43.60
2477;DHT22;1249;51.270;6.756;2022-07-23T12:53:04;38.80;43.60
2477;DHT22;1249;51.270;6.756;2022-07-23T12:55:32;38.90;43.70
2477;DHT22;1249;51.270;6.756;2022-07-23T12:58:09;39.00;43.50
2477;DHT22;1249;51.270;6.756;2022-07-23T13:00:58;39.10;43.60
2477;DHT22;1249;51.270;6.756;2022-07-23T13:03:30;39.20;43.40
2477;DHT22;1249;51.270;6.756;2022-07-23T13:05:58;39.30;43.10
2477;DHT22;1249;51.270;6.756;2022-07-23T13:08:27;39.40;42.90
2477;DHT22;1249;51.270;6.756;2022-07-23T13:10:54;39.50;43.10
2477;DHT22;1249;51.270;6.756;2022-07-23T13:13:24;39.60;43.20
2477;DHT22;1249;51.270;6.756;2022-07-23T13:15:51;39.70;42.70
2477;DHT22;1249;51.270;6.756;2022-07-23T13:18:19;39.80;42.30
2477;DHT22;1249;51.270;6.756;2022-07-23T13:20:48;39.80;41.30
2477;DHT22;1249;51.270;6.756;2022-07-23T13:23:15;39.80;41.00
2477;DHT22;1249;51.270;6.756;2022-07-23T13:25:43;39.80;41.10
2477;DHT22;1249;51.270;6.756;2022-07-23T13:28:10;39.90;41.20
2477;DHT22;1249;51.270;6.756;2022-07-23T13:30:39;39.90;41.40
2477;DHT22;1249;51.270;6.756;2022-07-23T13:33:06;40.00;41.20
2477;DHT22;1249;51.270;6.756;2022-07-23T13:35:33;40.00;41.00
2477;DHT22;1249;51.270;6.756;2022-07-23T13:38:01;40.10;41.10
2477;DHT22;1249;51.270;6.756;2022-07-23T13:40:28;40.10;41.00
2477;DHT22;1249;51.270;6.756;2022-07-23T13:42:55;40.10;40.80
2477;DHT22;1249;51.270;6.756;2022-07-23T13:45:22;40.10;40.70
2477;DHT22;1249;51.270;6.756;2022-07-23T13:47:50;40.00;40.70
2477;DHT22;1249;51.270;6.756;2022-07-23T13:50:17;39.90;40.50
2477;DHT22;1249;51.270;6.756;2022-07-23T13:52:44;39.80;40.90
2477;DHT22;1249;51.270;6.756;2022-07-23T13:55:11;39.80;41.50
2477;DHT22;1249;51.270;6.756;2022-07-23T13:57:37;39.80;41.90
2477;DHT22;1249;51.270;6.756;2022-07-23T14:00:06;39.80;42.00
2477;DHT22;1249;51.270;6.756;2022-07-23T14:02:35;39.90;41.90
2477;DHT22;1249;51.270;6.756;2022-07-23T14:05:05;39.90;41.90
2477;DHT22;1249;51.270;6.756;2022-07-23T14:07:32;39.90;42.10
2477;DHT22;1249;51.270;6.756;2022-07-23T14:09:59;40.00;42.10
2477;DHT22;1249;51.270;6.756;2022-07-23T14:12:25;40.00;42.20
2477;DHT22;1249;51.270;6.756;2022-07-23T14:14:52;40.00;41.90
2477;DHT22;1249;51.270;6.756;2022-07-23T14:17:20;40.00;41.40
2477;DHT22;1249;51.270;6.756;2022-07-23T14:19:47;40.00;41.20
2477;DHT22;1249;51.270;6.756;2022-07-23T14:22:15;39.90;40.80
2477;DHT22;1249;51.270;6.756;2022-07-23T14:24:42;40.00;40.80
2477;DHT22;1249;51.270;6.756;2022-07-23T14:27:09;40.00;41.00
2477;DHT22;1249;51.270;6.756;2022-07-23T14:29:36;40.00;41.30
2477;DHT22;1249;51.270;6.756;2022-07-23T14:32:03;39.90;41.10
2477;DHT22;1249;51.270;6.756;2022-07-23T14:34:30;39.90;41.10
2477;DHT22;1249;51.270;6.756;2022-07-23T14:36:58;39.90;40.90
2477;DHT22;1249;51.270;6.756;2022-07-23T14:39:26;39.80;40.90
2477;DHT22;1249;51.270;6.756;2022-07-23T14:41:53;39.80;41.30
2477;DHT22;1249;51.270;6.756;2022-07-23T14:44:20;39.60;41.50
2477;DHT22;1249;51.270;6.756;2022-07-23T14:46:47;39.60;41.50
2477;DHT22;1249;51.270;6.756;2022-07-23T14:49:13;39.50;41.80
2477;DHT22;1249;51.270;6.756;2022-07-23T14:51:40;39.40;42.00
2477;DHT22;1249;51.270;6.756;2022-07-23T14:54:07;39.30;41.70
2477;DHT22;1249;51.270;6.756;2022-07-23T14:56:36;39.20;41.60
2477;DHT22;1249;51.270;6.756;2022-07-23T14:59:02;39.20;41.40
2477;DHT22;1249;51.270;6.756;2022-07-23T15:01:29;39.10;41.50
2477;DHT22;1249;51.270;6.756;2022-07-23T15:03:56;39.00;41.40
2477;DHT22;1249;51.270;6.756;2022-07-23T15:06:23;39.00;41.50
2477;DHT22;1249;51.270;6.756;2022-07-23T15:08:50;39.00;42.00
2477;DHT22;1249;51.270;6.756;2022-07-23T15:11:17;39.00;42.40
2477;DHT22;1249;51.270;6.756;2022-07-23T15:13:46;39.00;42.60
2477;DHT22;1249;51.270;6.756;2022-07-23T15:16:13;38.90;42.40
2477;DHT22;1249;51.270;6.756;2022-07-23T15:18:40;38.80;42.20
2477;DHT22;1249;51.270;6.756;2022-07-23T15:21:06;38.70;41.90
2477;DHT22;1249;51.270;6.756;2022-07-23T15:23:33;38.60;41.90
2477;DHT22;1249;51.270;6.756;2022-07-23T15:26:00;38.60;42.10
2477;DHT22;1249;51.270;6.756;2022-07-23T15:28:27;38.40;42.30
2477;DHT22;1249;51.270;6.756;2022-07-23T15:30:55;38.30;42.60
2477;DHT22;1249;51.270;6.756;2022-07-23T15:33:22;38.20;42.40
2477;DHT22;1249;51.270;6.756;2022-07-23T15:35:49;38.10;42.50
2477;DHT22;1249;51.270;6.756;2022-07-23T15:38:18;37.90;42.90
2477;DHT22;1249;51.270;6.756;2022-07-23T15:40:45;37.80;43.10
2477;DHT22;1249;51.270;6.756;2022-07-23T15:43:12;37.50;43.10
2477;DHT22;1249;51.270;6.756;2022-07-23T15:45:39;37.60;43.20
2477;DHT22;1249;51.270;6.756;2022-07-23T15:48:07;37.40;43.30
2477;DHT22;1249;51.270;6.756;2022-07-23T15:50:34;37.20;43.30
2477;DHT22;1249;51.270;6.756;2022-07-23T15:53:01;37.10;43.30
2477;DHT22;1249;51.270;6.756;2022-07-23T15:55:28;37.00;43.60
2477;DHT22;1249;51.270;6.756;2022-07-23T15:57:55;36.80;43.70
2477;DHT22;1249;51.270;6.756;2022-07-23T16:00:21;36.70;43.70
2477;DHT22;1249;51.270;6.756;2022-07-23T16:02:48;36.40;44.20
2477;DHT22;1249;51.270;6.756;2022-07-23T16:05:16;36.30;44.20
2477;DHT22;1249;51.270;6.756;2022-07-23T16:07:43;36.10;44.40
2477;DHT22;1249;51.270;6.756;2022-07-23T16:10:10;35.90;44.40
2477;DHT22;1249;51.270;6.756;2022-07-23T16:12:38;35.80;43.90